Terminal Aerodrome Forecast
Issued by NWS Burlington, VT

Home | Current Version | Previous Version | Text Only | Print | Product List | Glossary On
Versions: 1 2 3 4 5 6 7 8 9 10 11 12 13 14 15 16
000
FTUS41 KBTV 241700
TAFBTV
TAF
KBTV 241725Z 2418/2518 33020G30KT P6SM SCT050
     FM242200 33014G24KT P6SM FEW050
     FM250100 34004KT P6SM SKC
     FM250900 00000KT P6SM SCT150
     FM251500 33007KT P6SM BKN100=

USA.gov is the U.S. government's official web portal to all federal, state and local government web resources and services.